Time;durP1;ratioP1;P1;durP2;ratioP2;P2;SDS_P1;SDS_P2;PMS_P1;PMS_P2;Temp;Humidity;BMP_temperature;BMP_pressure;BME280_temperature;BME280_humidity;BME280_pressure;Samples;Min_cycle;Max_cycle;Signal;HPM_P1;HPM_P2
2022/01/04 00:01:57;;;;;;;4.57;1.00;;;1.60;99.90;;;;;;4984755;28;20214;-93
2022/01/04 00:04:30;;;;;;;4.73;0.70;;;1.50;99.90;;;;;;4992882;28;20214;-92
2022/01/04 00:07:06;;;;;;;5.37;1.43;;;1.60;99.90;;;;;;4989177;28;20215;-94
2022/01/04 00:09:41;;;;;;;2.47;0.67;;;1.50;99.90;;;;;;4982245;28;20236;-93
2022/01/04 00:15:06;;;;;;;3.37;0.60;;;1.60;99.90;;;;;;5195876;22;20228;-94
2022/01/04 00:17:38;;;;;;;4.23;0.83;;;1.60;99.90;;;;;;5039112;28;20188;-93
2022/01/04 00:20:11;;;;;;;3.60;1.00;;;1.60;99.90;;;;;;5254050;22;20231;-95
2022/01/04 00:22:43;;;;;;;0.93;0.53;;;1.60;99.90;;;;;;5055813;28;20204;-94
2022/01/04 00:25:15;;;;;;;4.07;0.60;;;1.60;99.90;;;;;;5055056;28;20208;-93
2022/01/04 00:27:48;;;;;;;3.53;1.00;;;1.60;99.90;;;;;;5053027;28;20227;-94
2022/01/04 00:30:24;;;;;;;4.97;0.80;;;1.60;99.90;;;;;;5106437;23;20244;-96
2022/01/04 00:32:57;;;;;;;2.40;1.03;;;1.60;99.90;;;;;;5013033;28;20230;-94
2022/01/04 00:35:30;;;;;;;5.47;1.10;;;1.60;99.90;;;;;;5013025;28;20194;-95
2022/01/04 00:38:21;;;;;;;5.27;0.80;;;1.60;99.90;;;;;;5011318;28;20229;-95
2022/01/04 00:43:28;;;;;;;4.30;1.40;;;1.50;99.90;;;;;;5031956;28;20221;-96
2022/01/04 00:46:00;;;;;;;3.93;1.30;;;1.50;99.90;;;;;;5027772;28;20599;-96
2022/01/04 00:51:19;;;;;;;2.73;1.00;;;1.50;99.90;;;;;;5027280;28;20212;-96
2022/01/04 00:53:59;;;;;;;3.20;1.20;;;1.50;99.90;;;;;;5027883;28;20234;-96
2022/01/04 00:56:31;;;;;;;4.70;1.10;;;1.50;99.90;;;;;;5027915;28;20206;-96
2022/01/04 00:59:07;;;;;;;3.43;1.10;;;1.50;99.90;;;;;;5030420;28;20272;-95
2022/01/04 01:01:41;;;;;;;4.10;1.17;;;1.50;99.90;;;;;;5030313;28;20201;-95
2022/01/04 01:04:15;;;;;;;6.57;1.30;;;1.50;99.90;;;;;;5030018;28;20210;-95
2022/01/04 01:06:46;;;;;;;5.23;1.17;;;1.50;99.90;;;;;;5028200;28;20240;-95
2022/01/04 01:09:22;;;;;;;4.13;1.10;;;1.50;99.90;;;;;;5005089;28;20210;-95
2022/01/04 01:11:53;;;;;;;5.30;1.43;;;1.40;99.90;;;;;;5010991;28;20212;-96
2022/01/04 01:14:24;;;;;;;5.83;0.90;;;1.40;99.90;;;;;;5017711;28;20307;-95
2022/01/04 01:16:56;;;;;;;4.73;2.23;;;1.30;99.90;;;;;;5026682;28;20297;-93
2022/01/04 01:19:28;;;;;;;6.03;2.83;;;1.30;99.90;;;;;;5033116;28;20262;-94
2022/01/04 01:22:01;;;;;;;3.43;1.97;;;1.30;99.90;;;;;;5022123;28;20205;-95
2022/01/04 01:24:36;;;;;;;4.27;1.50;;;1.40;99.90;;;;;;5030700;28;20582;-96
2022/01/04 01:27:09;;;;;;;5.00;1.27;;;1.40;99.90;;;;;;5022017;28;20225;-94
2022/01/04 01:29:40;;;;;;;5.10;1.30;;;1.40;99.90;;;;;;5032873;28;20213;-95
2022/01/04 01:32:11;;;;;;;3.87;1.30;;;1.50;99.90;;;;;;5023305;28;20284;-94
2022/01/04 01:34:45;;;;;;;4.87;1.67;;;1.50;99.90;;;;;;5024422;28;20644;-93
2022/01/04 01:37:17;;;;;;;4.27;1.50;;;1.50;99.90;;;;;;5017344;28;20208;-95
2022/01/04 01:39:52;;;;;;;3.80;2.87;;;1.50;99.90;;;;;;5045488;28;20212;-92
2022/01/04 01:42:23;;;;;;;5.77;1.37;;;1.60;99.90;;;;;;5050382;28;20254;-93
2022/01/04 01:44:57;;;;;;;6.43;1.27;;;1.60;99.90;;;;;;5053812;28;20199;-94
2022/01/04 01:47:30;;;;;;;5.33;1.10;;;1.60;99.90;;;;;;5030446;22;20185;-93
2022/01/04 01:50:03;;;;;;;2.77;1.00;;;1.60;99.90;;;;;;5034293;28;20211;-94
2022/01/04 01:52:40;;;;;;;3.67;1.17;;;1.50;99.90;;;;;;5030150;28;20677;-94
2022/01/04 01:55:16;;;;;;;3.63;1.07;;;1.60;99.90;;;;;;5031831;28;20233;-93
2022/01/04 01:57:49;;;;;;;3.43;1.83;;;1.50;99.90;;;;;;5029248;28;20304;-94
2022/01/04 02:00:24;;;;;;;2.93;1.53;;;1.50;99.90;;;;;;5026132;28;20212;-94
2022/01/04 02:02:57;;;;;;;1.63;1.00;;;1.50;99.90;;;;;;5024991;28;20236;-94
2022/01/04 02:05:30;;;;;;;3.07;2.43;;;1.40;99.90;;;;;;5031755;28;20291;-93
2022/01/04 02:08:05;;;;;;;5.60;1.10;;;1.50;99.90;;;;;;5034479;28;20210;-93
2022/01/04 02:10:48;;;;;;;3.70;1.50;;;1.50;99.90;;;;;;5034438;28;20632;-92
2022/01/04 02:13:21;;;;;;;4.57;2.10;;;1.40;99.90;;;;;;5034133;28;20205;-93
2022/01/04 02:15:53;;;;;;;3.40;1.10;;;1.50;99.90;;;;;;5033397;28;20215;-93
2022/01/04 02:18:26;;;;;;;3.87;0.97;;;1.40;99.90;;;;;;5036244;28;20212;-94
2022/01/04 02:21:14;;;;;;;1.20;0.60;;;1.40;99.90;;;;;;5035550;28;20305;-92
2022/01/04 02:23:48;;;;;;;3.60;0.83;;;1.50;99.90;;;;;;5028246;28;20219;-92
2022/01/04 02:26:23;;;;;;;2.83;1.90;;;1.40;99.90;;;;;;5071188;22;20314;-92
2022/01/04 02:28:56;;;;;;;3.73;1.33;;;1.40;99.90;;;;;;5054273;28;20222;-93
2022/01/04 02:31:34;;;;;;;5.73;5.23;;;1.40;99.90;;;;;;5054123;28;20207;-91
2022/01/04 02:34:08;;;;;;;5.93;4.30;;;1.50;99.90;;;;;;5040118;28;20223;-90
2022/01/04 02:36:47;;;;;;;3.43;1.20;;;1.50;99.90;;;;;;5056421;28;20204;-92
2022/01/04 02:39:23;;;;;;;4.37;0.73;;;1.50;99.90;;;;;;5057784;28;20215;-93
2022/01/04 02:41:56;;;;;;;3.63;1.00;;;1.50;99.90;;;;;;5057266;28;20575;-94
2022/01/04 02:44:39;;;;;;;2.27;1.00;;;1.40;99.90;;;;;;5057907;28;20227;-93
2022/01/04 02:47:13;;;;;;;4.00;1.20;;;1.40;99.90;;;;;;5052919;28;20227;-95
2022/01/04 02:49:45;;;;;;;3.23;0.90;;;1.40;99.90;;;;;;5048231;28;20200;-93
2022/01/04 02:52:20;;;;;;;1.93;1.00;;;1.40;99.90;;;;;;5052439;28;20211;-94
2022/01/04 02:54:52;;;;;;;4.40;1.00;;;1.40;99.90;;;;;;5050080;28;20245;-93
2022/01/04 02:57:24;;;;;;;1.60;0.63;;;1.40;99.90;;;;;;5051364;28;20205;-92
2022/01/04 02:59:56;;;;;;;1.90;0.80;;;1.40;99.90;;;;;;5026526;28;20334;-94
2022/01/04 03:02:28;;;;;;;4.43;0.87;;;1.30;99.90;;;;;;5046784;28;20207;-94
2022/01/04 03:05:00;;;;;;;1.80;0.70;;;1.40;99.90;;;;;;5051682;28;20234;-94
2022/01/04 03:07:32;;;;;;;2.10;1.00;;;1.40;99.90;;;;;;5048879;28;20204;-93
2022/01/04 03:10:10;;;;;;;1.20;0.60;;;1.40;99.90;;;;;;5047440;28;20199;-92
2022/01/04 03:12:45;;;;;;;5.83;0.93;;;1.40;99.90;;;;;;5047715;28;20281;-93
2022/01/04 03:15:21;;;;;;;2.10;0.60;;;1.40;99.90;;;;;;5040371;28;20264;-93
2022/01/04 03:17:54;;;;;;;1.53;0.70;;;1.40;99.90;;;;;;5022998;28;20600;-96
2022/01/04 03:23:29;;;;;;;1.53;0.80;;;1.30;99.90;;;;;;5051054;28;20211;-94
2022/01/04 03:26:02;;;;;;;3.70;0.90;;;1.30;99.90;;;;;;5042952;28;20215;-95
2022/01/04 03:28:34;;;;;;;2.40;0.80;;;1.30;99.90;;;;;;5045134;28;20216;-95
2022/01/04 03:31:06;;;;;;;2.23;0.63;;;1.30;99.90;;;;;;5042999;28;20231;-96
2022/01/04 03:33:37;;;;;;;1.30;0.70;;;1.30;99.90;;;;;;5069785;23;20240;-95
2022/01/04 03:36:09;;;;;;;2.83;0.83;;;1.30;99.90;;;;;;5021026;28;20237;-95
2022/01/04 03:38:50;;;;;;;3.20;0.70;;;1.40;99.90;;;;;;5027185;28;20219;-94
2022/01/04 03:41:25;;;;;;;2.83;0.73;;;1.50;99.90;;;;;;5032137;28;20213;-95
2022/01/04 03:43:57;;;;;;;1.37;0.70;;;1.50;99.90;;;;;;5030873;28;20229;-95
2022/01/04 03:46:32;;;;;;;4.40;1.07;;;1.50;99.90;;;;;;5032545;28;20292;-94
2022/01/04 03:49:06;;;;;;;5.63;0.90;;;1.50;99.90;;;;;;5015132;28;20235;-93
2022/01/04 03:51:37;;;;;;;4.73;0.77;;;1.50;99.90;;;;;;5030599;28;20197;-96
2022/01/04 03:54:12;;;;;;;2.07;0.53;;;1.50;99.90;;;;;;5029829;28;20235;-95
2022/01/04 03:56:43;;;;;;;1.47;0.80;;;1.50;99.90;;;;;;5027351;28;20209;-94
2022/01/04 03:59:15;;;;;;;2.10;0.80;;;1.50;99.90;;;;;;5027230;28;20213;-96
2022/01/04 04:01:47;;;;;;;3.17;1.27;;;1.50;99.90;;;;;;5036004;28;20207;-94
2022/01/04 04:04:21;;;;;;;2.50;0.87;;;1.40;99.90;;;;;;5037350;28;20271;-94
2022/01/04 04:06:55;;;;;;;1.33;1.07;;;1.40;99.90;;;;;;5040563;28;20199;-91
2022/01/04 04:09:36;;;;;;;2.40;0.87;;;1.50;99.90;;;;;;5057086;28;20235;-94
2022/01/04 04:12:13;;;;;;;3.43;0.70;;;1.50;99.90;;;;;;5051079;28;20212;-92
2022/01/04 04:14:46;;;;;;;2.53;0.70;;;1.50;99.90;;;;;;5047544;28;20231;-94
2022/01/04 04:17:22;;;;;;;2.17;0.80;;;1.50;99.90;;;;;;5047068;28;20196;-95
2022/01/04 04:19:54;;;;;;;1.10;1.00;;;1.50;99.90;;;;;;5047500;28;20215;-96
2022/01/04 04:22:29;;;;;;;1.47;0.80;;;1.50;99.90;;;;;;5050579;28;20216;-93
2022/01/04 04:25:04;;;;;;;2.23;0.90;;;1.50;99.90;;;;;;5051725;28;20251;-92
2022/01/04 04:27:37;;;;;;;1.37;0.63;;;1.50;99.90;;;;;;5033154;28;20204;-93
2022/01/04 04:30:11;;;;;;;2.37;0.67;;;1.50;99.90;;;;;;5050960;28;20226;-93
2022/01/04 04:32:45;;;;;;;2.83;2.60;;;1.50;99.90;;;;;;5049813;28;20204;-92
2022/01/04 04:35:19;;;;;;;2.53;2.33;;;1.50;99.90;;;;;;5052171;28;20231;-94
2022/01/04 04:37:56;;;;;;;2.20;0.63;;;1.50;99.90;;;;;;5002509;28;20271;-95
2022/01/04 04:40:31;;;;;;;4.83;1.53;;;1.40;99.90;;;;;;5013108;28;20240;-92
2022/01/04 04:43:04;;;;;;;2.57;0.80;;;1.40;99.90;;;;;;5026573;28;20255;-93
2022/01/04 04:45:36;;;;;;;1.50;0.97;;;1.30;99.90;;;;;;5020063;28;20227;-94
2022/01/04 04:48:08;;;;;;;3.43;0.97;;;1.30;99.90;;;;;;5019456;28;20209;-95
2022/01/04 04:50:40;;;;;;;4.90;2.07;;;1.20;99.90;;;;;;5024627;28;20344;-93
2022/01/04 04:53:12;;;;;;;2.50;1.13;;;1.20;99.90;;;;;;5026869;28;20201;-95
2022/01/04 04:55:55;;;;;;;1.43;0.90;;;1.20;99.90;;;;;;5030982;28;20239;-93
2022/01/04 04:58:27;;;;;;;3.57;1.47;;;1.20;99.90;;;;;;5031862;28;20212;-94
2022/01/04 05:00:59;;;;;;;2.83;1.10;;;1.20;99.90;;;;;;5037990;28;20202;-93
2022/01/04 05:03:31;;;;;;;2.20;1.30;;;1.20;99.90;;;;;;5033252;28;20326;-95
2022/01/04 05:06:02;;;;;;;2.77;1.30;;;1.20;99.90;;;;;;5032570;28;20216;-94
2022/01/04 05:08:34;;;;;;;2.13;1.10;;;1.20;99.90;;;;;;5039690;28;20218;-93
2022/01/04 05:11:09;;;;;;;2.03;1.50;;;1.10;99.90;;;;;;5043305;28;20286;-94
2022/01/04 05:13:41;;;;;;;3.97;1.07;;;1.00;99.90;;;;;;5026211;28;20625;-94
2022/01/04 05:16:13;;;;;;;2.30;1.37;;;1.00;99.90;;;;;;5043568;28;20229;-94
2022/01/04 05:18:44;;;;;;;1.33;1.20;;;0.90;99.90;;;;;;5051578;28;20212;-94
2022/01/04 05:21:17;;;;;;;3.37;2.00;;;0.90;99.90;;;;;;5042406;28;20239;-95
2022/01/04 05:23:50;;;;;;;2.00;1.20;;;0.90;99.90;;;;;;5042360;28;20238;-96
2022/01/04 05:26:24;;;;;;;4.60;1.60;;;0.90;99.90;;;;;;5040147;28;20215;-95
2022/01/04 05:28:55;;;;;;;3.33;1.40;;;0.90;99.90;;;;;;5041870;28;20211;-93
2022/01/04 05:31:32;;;;;;;3.53;1.53;;;0.80;99.90;;;;;;5041106;28;20212;-93
2022/01/04 05:34:05;;;;;;;5.53;1.80;;;0.80;99.90;;;;;;5040895;28;20688;-92
2022/01/04 05:36:38;;;;;;;2.43;1.60;;;0.80;99.90;;;;;;5038950;28;20236;-93
2022/01/04 05:39:10;;;;;;;4.40;1.70;;;0.80;99.90;;;;;;5020472;28;20723;-94
2022/01/04 05:41:44;;;;;;;3.50;2.00;;;0.80;99.90;;;;;;5020445;28;20208;-94
2022/01/04 05:44:19;;;;;;;4.43;1.90;;;0.90;99.90;;;;;;5021566;28;20222;-95
2022/01/04 05:46:51;;;;;;;4.00;1.93;;;0.90;99.90;;;;;;5020623;28;20223;-93
2022/01/04 05:49:22;;;;;;;3.97;1.90;;;1.00;99.90;;;;;;5020813;28;20202;-94
2022/01/04 05:51:54;;;;;;;4.43;2.43;;;1.00;99.90;;;;;;5021230;28;20260;-94
2022/01/04 05:54:26;;;;;;;3.30;2.30;;;1.00;99.90;;;;;;5022713;28;20227;-92
2022/01/04 05:56:59;;;;;;;4.50;2.00;;;1.00;99.90;;;;;;5007277;28;20237;-95
2022/01/04 05:59:31;;;;;;;3.93;2.10;;;1.00;99.90;;;;;;5022081;28;20212;-96
2022/01/04 06:02:04;;;;;;;3.23;2.20;;;1.00;99.90;;;;;;5021421;28;20216;-96
2022/01/04 06:04:38;;;;;;;3.53;2.00;;;0.90;99.90;;;;;;5020695;28;20212;-94
2022/01/04 06:07:10;;;;;;;2.97;1.97;;;0.90;99.90;;;;;;5022285;28;20254;-96
2022/01/04 06:09:44;;;;;;;3.30;1.87;;;1.00;99.90;;;;;;5022299;28;20305;-94
2022/01/04 06:15:11;;;;;;;4.57;1.87;;;1.00;99.90;;;;;;4990794;28;20275;-93
2022/01/04 06:17:44;;;;;;;4.77;1.40;;;1.00;99.90;;;;;;5023315;28;20248;-96
2022/01/04 06:20:20;;;;;;;3.00;1.40;;;1.00;99.90;;;;;;5000819;28;20213;-93
2022/01/04 06:22:54;;;;;;;4.63;1.63;;;1.10;99.90;;;;;;5034266;28;20602;-96
2022/01/04 06:25:27;;;;;;;1.67;1.10;;;1.10;99.90;;;;;;5018747;28;20237;-93
2022/01/04 06:27:59;;;;;;;8.60;3.47;;;1.00;99.90;;;;;;5031128;28;20217;-93
2022/01/04 06:30:33;;;;;;;1.87;0.90;;;1.10;99.90;;;;;;5033408;28;20205;-93
2022/01/04 06:33:05;;;;;;;1.77;0.87;;;1.20;99.90;;;;;;5032125;28;20273;-93
2022/01/04 06:35:40;;;;;;;3.40;0.97;;;1.20;99.90;;;;;;4998682;28;20217;-93
2022/01/04 06:38:13;;;;;;;4.67;0.90;;;1.20;99.90;;;;;;5005240;28;20207;-93
2022/01/04 06:40:46;;;;;;;6.53;1.10;;;1.30;99.90;;;;;;5003140;28;20237;-93
2022/01/04 06:43:19;;;;;;;5.77;0.80;;;1.40;99.90;;;;;;5019915;28;20312;-95
2022/01/04 06:45:51;;;;;;;1.83;0.90;;;1.40;99.90;;;;;;5025661;28;20239;-94
2022/01/04 06:48:22;;;;;;;3.73;1.20;;;1.40;99.90;;;;;;5020372;28;20210;-94
2022/01/04 06:50:54;;;;;;;2.40;0.90;;;1.40;99.90;;;;;;5020072;28;20202;-93
2022/01/04 06:53:25;;;;;;;3.97;1.03;;;1.40;99.90;;;;;;5023089;28;20201;-94
2022/01/04 06:55:56;;;;;;;2.63;0.97;;;1.50;99.90;;;;;;5006278;28;20217;-94
2022/01/04 06:58:31;;;;;;;6.73;1.27;;;1.50;99.90;;;;;;5003167;28;20213;-96
2022/01/04 07:01:04;;;;;;;2.57;1.10;;;1.50;99.90;;;;;;5022316;28;20216;-96
2022/01/04 07:03:36;;;;;;;4.03;1.40;;;1.50;99.90;;;;;;5026246;28;20266;-92
2022/01/04 07:06:08;;;;;;;2.93;1.00;;;1.50;99.90;;;;;;5015244;28;20225;-95
2022/01/04 07:08:42;;;;;;;3.50;1.87;;;1.50;99.90;;;;;;5015484;28;20226;-91
2022/01/04 07:11:14;;;;;;;2.47;0.90;;;1.50;99.90;;;;;;5035252;28;20238;-91
2022/01/04 07:13:48;;;;;;;7.17;1.20;;;1.60;99.90;;;;;;5031174;28;20212;-95
2022/01/04 07:16:20;;;;;;;2.97;1.20;;;1.60;99.90;;;;;;5033476;28;20255;-94
2022/01/04 07:18:53;;;;;;;3.77;1.33;;;1.60;99.90;;;;;;5034448;28;20216;-94
2022/01/04 07:21:24;;;;;;;5.43;3.10;;;1.60;99.90;;;;;;5029074;28;20206;-93
2022/01/04 07:23:56;;;;;;;3.43;1.70;;;1.60;99.90;;;;;;5011301;28;20678;-92
2022/01/04 07:26:31;;;;;;;2.90;1.20;;;1.60;99.90;;;;;;5023279;28;20287;-93
2022/01/04 07:29:05;;;;;;;3.20;1.10;;;1.60;99.90;;;;;;5023045;28;20209;-94
2022/01/04 07:31:36;;;;;;;2.97;1.07;;;1.60;99.90;;;;;;5022560;28;20232;-92
2022/01/04 07:34:08;;;;;;;4.30;2.47;;;1.60;99.90;;;;;;5024509;28;20225;-93
2022/01/04 07:36:40;;;;;;;4.43;2.33;;;1.50;99.90;;;;;;5013388;28;20225;-93
2022/01/04 07:39:11;;;;;;;4.47;1.33;;;1.50;99.90;;;;;;5034996;28;20239;-94
2022/01/04 07:41:43;;;;;;;6.70;1.27;;;1.50;99.90;;;;;;5027576;28;20233;-92
2022/01/04 07:44:17;;;;;;;2.93;1.33;;;1.50;99.90;;;;;;5031184;28;20212;-93
2022/01/04 07:46:50;;;;;;;3.23;1.67;;;1.40;99.90;;;;;;5009656;28;20208;-93
2022/01/04 07:49:22;;;;;;;4.87;4.50;;;1.40;99.90;;;;;;5015473;28;20209;-93
2022/01/04 07:51:55;;;;;;;8.30;2.27;;;1.40;99.90;;;;;;5030492;28;20210;-94
2022/01/04 07:54:31;;;;;;;8.33;2.20;;;1.40;99.90;;;;;;5013794;28;20236;-92
2022/01/04 07:57:02;;;;;;;2.47;1.60;;;1.50;99.90;;;;;;5026411;28;20653;-93
2022/01/04 07:59:36;;;;;;;2.97;1.53;;;1.50;99.90;;;;;;5006954;28;20210;-93
2022/01/04 08:02:08;;;;;;;5.23;1.10;;;1.50;99.90;;;;;;5004643;28;20209;-93
2022/01/04 08:04:39;;;;;;;6.87;5.60;;;1.50;99.90;;;;;;5022194;28;20219;-93
2022/01/04 08:07:11;;;;;;;2.33;1.47;;;1.50;99.90;;;;;;5027005;28;20216;-91
2022/01/04 08:09:53;;;;;;;6.00;1.40;;;1.50;99.90;;;;;;5022961;28;20208;-94
2022/01/04 08:12:27;;;;;;;3.43;1.30;;;1.50;99.90;;;;;;5022793;28;20232;-93
2022/01/04 08:15:00;;;;;;;4.07;1.80;;;1.60;99.90;;;;;;5018998;28;20251;-94
2022/01/04 08:17:34;;;;;;;2.40;1.30;;;1.60;99.90;;;;;;5020415;28;20260;-94
2022/01/04 08:20:08;;;;;;;3.10;1.30;;;1.60;99.90;;;;;;5020218;28;20263;-92
2022/01/04 08:22:39;;;;;;;4.33;1.57;;;1.60;99.90;;;;;;5020027;28;20228;-93
2022/01/04 08:25:13;;;;;;;3.10;1.47;;;1.60;99.90;;;;;;5020390;28;20204;-92
2022/01/04 08:27:45;;;;;;;2.57;1.40;;;1.70;99.90;;;;;;5017825;28;20205;-92
2022/01/04 08:30:19;;;;;;;2.90;1.50;;;1.70;99.90;;;;;;5020820;28;20212;-92
2022/01/04 08:32:51;;;;;;;3.03;1.27;;;1.70;99.90;;;;;;5018442;28;20209;-94
2022/01/04 08:35:23;;;;;;;2.73;1.20;;;1.70;99.90;;;;;;5017848;28;20240;-94
2022/01/04 08:37:54;;;;;;;3.10;1.00;;;1.70;99.90;;;;;;5017423;28;20237;-94
2022/01/04 08:40:25;;;;;;;2.60;1.10;;;1.70;99.90;;;;;;5017724;28;20228;-94
2022/01/04 08:42:57;;;;;;;2.70;1.30;;;1.70;99.90;;;;;;5018453;28;20212;-94
2022/01/04 08:45:31;;;;;;;4.23;3.93;;;1.70;99.90;;;;;;5001540;28;20212;-93
2022/01/04 08:48:04;;;;;;;1.27;0.80;;;1.80;99.90;;;;;;5019887;28;20228;-94
2022/01/04 08:50:35;;;;;;;1.87;0.70;;;1.80;99.90;;;;;;5018643;28;20564;-94
2022/01/04 08:53:10;;;;;;;2.00;0.60;;;1.80;99.90;;;;;;5020609;28;20236;-94
2022/01/04 08:55:42;;;;;;;1.73;0.80;;;1.80;99.90;;;;;;5033175;28;20209;-95
2022/01/04 08:58:13;;;;;;;4.97;0.70;;;1.80;99.90;;;;;;5034865;28;20304;-93
2022/01/04 09:00:48;;;;;;;1.90;0.90;;;1.80;99.90;;;;;;5019823;28;20224;-93
2022/01/04 09:03:20;;;;;;;2.03;0.70;;;1.80;99.90;;;;;;5020634;28;20205;-96
2022/01/04 09:05:52;;;;;;;2.73;1.00;;;1.70;99.90;;;;;;5020122;28;20193;-94
2022/01/04 09:08:24;;;;;;;2.10;0.70;;;1.80;99.90;;;;;;5036130;28;20209;-93
2022/01/04 09:11:00;;;;;;;5.53;1.03;;;1.80;99.90;;;;;;5019790;28;20221;-94
2022/01/04 09:13:35;;;;;;;2.10;1.20;;;1.90;99.90;;;;;;5034923;28;20605;-92
2022/01/04 09:18:58;;;;;;;3.10;0.73;;;2.00;99.90;;;;;;5063011;22;20574;-90
2022/01/04 09:21:37;;;;;;;2.60;0.60;;;2.00;99.90;;;;;;5036499;28;20186;-94
2022/01/04 09:24:09;;;;;;;1.37;0.67;;;2.10;99.90;;;;;;5035980;28;20257;-94
2022/01/04 09:26:40;;;;;;;1.63;0.50;;;2.00;99.90;;;;;;5035623;28;20205;-93
2022/01/04 09:29:12;;;;;;;1.10;0.50;;;2.10;99.90;;;;;;5036128;28;20216;-94
2022/01/04 09:31:47;;;;;;;2.80;0.77;;;2.10;99.90;;;;;;5036362;28;20201;-95
2022/01/04 09:34:18;;;;;;;1.67;0.90;;;2.20;99.90;;;;;;5036215;28;20208;-95
2022/01/04 09:36:50;;;;;;;3.60;0.60;;;2.20;99.90;;;;;;5036064;28;20217;-94
2022/01/04 09:39:23;;;;;;;2.63;0.67;;;2.30;99.90;;;;;;5029948;28;20717;-94
2022/01/04 09:41:56;;;;;;;1.03;0.70;;;2.30;99.90;;;;;;5029528;28;20213;-93
2022/01/04 09:44:28;;;;;;;2.30;0.60;;;2.30;99.90;;;;;;5027780;28;20206;-94
2022/01/04 09:47:03;;;;;;;1.53;0.40;;;2.30;99.90;;;;;;5024130;28;20229;-94
2022/01/04 09:49:35;;;;;;;1.83;0.60;;;2.30;99.90;;;;;;5009176;28;20226;-95
2022/01/04 09:52:08;;;;;;;1.37;0.60;;;2.30;99.90;;;;;;5005255;28;20218;-95
2022/01/04 09:54:40;;;;;;;2.03;0.60;;;2.20;99.90;;;;;;5005529;28;20618;-95
2022/01/04 09:57:12;;;;;;;0.90;0.30;;;2.20;99.90;;;;;;5021336;28;20209;-96
2022/01/04 09:59:43;;;;;;;1.57;0.40;;;2.20;99.90;;;;;;5021049;28;20212;-95
2022/01/04 10:02:19;;;;;;;0.33;0.30;;;2.20;99.90;;;;;;5021498;28;20653;-94
2022/01/04 10:04:52;;;;;;;1.73;0.80;;;2.20;99.90;;;;;;5004135;28;20209;-94
2022/01/04 10:07:24;;;;;;;1.30;0.40;;;2.20;99.90;;;;;;5004166;28;20226;-95
2022/01/04 10:09:55;;;;;;;2.70;0.40;;;2.20;99.90;;;;;;5004843;28;20215;-95
2022/01/04 10:12:28;;;;;;;1.27;0.60;;;2.20;99.90;;;;;;5021504;28;20217;-95
2022/01/04 10:14:59;;;;;;;1.73;0.50;;;2.10;99.90;;;;;;5004562;28;20202;-95
2022/01/04 10:17:35;;;;;;;0.87;0.40;;;2.10;99.90;;;;;;5020217;28;20210;-94
2022/01/04 10:20:07;;;;;;;4.20;0.70;;;2.10;99.90;;;;;;5020821;28;20216;-95
2022/01/04 10:22:38;;;;;;;1.13;0.47;;;2.10;99.90;;;;;;5020732;28;20654;-95
2022/01/04 10:25:16;;;;;;;2.70;0.40;;;2.10;99.90;;;;;;5020680;28;20252;-96
2022/01/04 10:27:48;;;;;;;2.37;0.50;;;2.10;99.90;;;;;;5020223;28;20209;-96
2022/01/04 10:30:27;;;;;;;2.30;1.37;;;2.10;99.90;;;;;;5021411;28;20265;-95
2022/01/04 10:33:02;;;;;;;1.17;0.63;;;2.20;99.90;;;;;;5020952;28;20211;-95
2022/01/04 10:35:37;;;;;;;4.97;1.10;;;2.30;99.90;;;;;;5005464;28;20243;-95
2022/01/04 10:38:15;;;;;;;1.80;0.33;;;2.40;99.90;;;;;;5021342;28;20244;-95
2022/01/04 10:40:49;;;;;;;1.17;0.30;;;2.50;99.90;;;;;;5024161;28;20213;-96
2022/01/04 10:43:21;;;;;;;4.53;0.43;;;2.50;99.90;;;;;;5022046;28;20212;-93
2022/01/04 10:45:54;;;;;;;0.57;0.37;;;2.50;99.90;;;;;;5022354;28;20287;-93
2022/01/04 10:48:28;;;;;;;2.60;0.83;;;2.60;99.90;;;;;;5003655;28;20202;-94
2022/01/04 10:51:00;;;;;;;1.97;0.60;;;2.60;99.90;;;;;;5021275;28;20205;-94
2022/01/04 10:53:33;;;;;;;1.43;0.90;;;2.70;99.90;;;;;;5021953;28;20244;-95
2022/01/04 10:56:07;;;;;;;2.20;0.63;;;2.70;99.90;;;;;;5021374;28;20206;-96
2022/01/04 10:58:41;;;;;;;4.40;0.50;;;2.70;99.90;;;;;;5021688;28;20233;-96
2022/01/04 11:01:14;;;;;;;2.33;0.30;;;2.60;99.90;;;;;;5021610;28;20244;-95
2022/01/04 11:03:48;;;;;;;0.67;0.30;;;2.70;99.90;;;;;;5021716;28;20206;-95
2022/01/04 11:06:24;;;;;;;0.80;0.60;;;2.70;99.90;;;;;;5021000;28;20205;-95
2022/01/04 11:08:55;;;;;;;1.90;0.77;;;2.70;99.90;;;;;;5000432;28;20217;-96
2022/01/04 11:11:27;;;;;;;1.93;0.40;;;2.70;99.90;;;;;;4999971;28;20226;-96
2022/01/04 11:13:58;;;;;;;4.63;0.73;;;2.80;99.90;;;;;;4999262;28;20206;-96
2022/01/04 11:16:31;;;;;;;1.77;0.50;;;2.80;99.90;;;;;;4998789;28;20215;-96
2022/01/04 11:19:04;;;;;;;0.87;0.30;;;2.90;99.90;;;;;;4999287;28;20245;-96
2022/01/04 11:21:37;;;;;;;2.53;0.50;;;3.00;99.90;;;;;;4999588;28;20214;-95
2022/01/04 11:24:12;;;;;;;2.57;0.50;;;3.00;99.90;;;;;;4999900;28;20248;-95
2022/01/04 11:26:45;;;;;;;0.70;0.30;;;3.10;99.90;;;;;;4998487;28;20206;-94
2022/01/04 11:29:18;;;;;;;1.87;0.53;;;3.10;99.90;;;;;;4999170;28;20233;-94
2022/01/04 11:31:59;;;;;;;1.90;0.30;;;3.20;99.90;;;;;;5003774;28;20202;-96
2022/01/04 11:34:51;;;;;;;2.00;1.90;;;3.20;99.90;;;;;;4999860;28;20206;-95
2022/01/04 11:37:26;;;;;;;0.70;0.27;;;3.10;99.90;;;;;;4998963;28;20555;-94
2022/01/04 11:39:58;;;;;;;0.77;0.40;;;3.00;99.90;;;;;;4998858;28;20613;-96
2022/01/04 11:42:43;;;;;;;0.87;0.40;;;3.00;99.90;;;;;;5000066;28;20215;-94
2022/01/04 11:45:15;;;;;;;1.37;0.43;;;2.80;99.90;;;;;;5000906;28;20210;-96
2022/01/04 11:47:49;;;;;;;0.67;0.20;;;2.80;99.90;;;;;;5000750;28;20217;-95
2022/01/04 11:50:24;;;;;;;1.40;0.30;;;2.70;99.90;;;;;;5007522;28;20221;-92
2022/01/04 11:52:56;;;;;;;3.90;0.50;;;2.70;99.90;;;;;;5000049;28;20212;-93
2022/01/04 11:55:30;;;;;;;2.50;0.70;;;2.70;99.90;;;;;;5017058;28;20273;-93
2022/01/04 11:58:04;;;;;;;2.53;0.40;;;2.70;99.90;;;;;;5013462;28;20206;-95
2022/01/04 12:00:40;;;;;;;1.47;0.37;;;2.80;99.90;;;;;;4990683;28;20248;-95
2022/01/04 12:03:13;;;;;;;2.03;0.50;;;2.80;99.90;;;;;;5002775;28;20210;-94
2022/01/04 12:06:04;;;;;;;0.60;0.37;;;2.80;99.90;;;;;;4999263;28;20296;-95
2022/01/04 12:08:39;;;;;;;2.73;0.53;;;2.80;99.90;;;;;;5016844;28;20215;-94
2022/01/04 12:11:43;;;;;;;1.57;0.30;;;2.80;99.90;;;;;;5002214;28;20209;-96
2022/01/04 12:14:28;;;;;;;3.50;0.50;;;2.70;99.90;;;;;;4996886;28;20205;-95
2022/01/04 12:17:07;;;;;;;0.30;0.30;;;2.80;99.90;;;;;;5017809;28;20224;-96
2022/01/04 12:19:50;;;;;;;1.63;0.73;;;2.80;99.90;;;;;;5001323;28;20599;-94
2022/01/04 12:22:38;;;;;;;7.10;6.33;;;2.70;99.90;;;;;;5018463;28;20221;-94
2022/01/04 12:25:10;;;;;;;1.27;0.90;;;2.70;99.90;;;;;;4987615;28;20193;-95
2022/01/04 12:28:18;;;;;;;3.17;0.70;;;2.60;99.90;;;;;;5016946;28;20214;-95
2022/01/04 12:30:49;;;;;;;1.33;0.40;;;2.60;99.90;;;;;;5017636;28;20263;-96
2022/01/04 12:33:39;;;;;;;3.10;0.33;;;2.60;99.90;;;;;;5000457;28;20209;-92
2022/01/04 12:36:11;;;;;;;1.33;0.50;;;2.50;99.90;;;;;;5021470;28;20206;-94
2022/01/04 12:38:52;;;;;;;2.90;0.97;;;2.50;99.90;;;;;;5018850;28;20275;-92
2022/01/04 12:41:27;;;;;;;5.70;5.10;;;2.50;99.90;;;;;;5018284;28;20716;-94
2022/01/04 12:44:00;;;;;;;2.87;0.67;;;2.50;99.90;;;;;;5000616;28;20237;-94
2022/01/04 12:46:32;;;;;;;5.13;4.73;;;2.50;99.90;;;;;;5017266;28;20267;-94
2022/01/04 12:49:08;;;;;;;2.47;0.53;;;2.50;99.90;;;;;;5017147;28;20209;-95
2022/01/04 12:51:44;;;;;;;2.00;0.53;;;2.50;99.90;;;;;;5017249;28;20238;-94
2022/01/04 12:54:21;;;;;;;1.03;0.40;;;2.50;99.90;;;;;;5017220;28;20626;-93
2022/01/04 12:56:54;;;;;;;2.27;0.47;;;2.50;99.90;;;;;;5017427;28;20232;-93
2022/01/04 12:59:35;;;;;;;2.13;1.20;;;2.60;99.90;;;;;;5020252;28;20231;-93
2022/01/04 13:02:16;;;;;;;2.87;1.50;;;2.40;99.90;;;;;;5017847;28;20210;-93
2022/01/04 13:04:50;;;;;;;2.63;1.10;;;2.30;99.90;;;;;;5018185;28;20269;-95
2022/01/04 13:07:26;;;;;;;4.70;2.53;;;2.20;99.90;;;;;;5015753;28;20210;-93
2022/01/04 13:10:03;;;;;;;1.50;0.47;;;2.10;99.90;;;;;;5023000;28;20209;-96
2022/01/04 13:12:36;;;;;;;4.10;0.97;;;2.10;99.90;;;;;;5023126;28;20216;-93
2022/01/04 13:15:10;;;;;;;2.23;0.40;;;2.10;99.90;;;;;;5021676;28;20205;-95
2022/01/04 13:17:45;;;;;;;1.97;1.17;;;2.00;99.90;;;;;;5019968;28;20251;-94
2022/01/04 13:20:24;;;;;;;2.50;1.23;;;2.00;99.90;;;;;;5021247;28;20232;-95
2022/01/04 13:22:57;;;;;;;2.17;0.80;;;1.90;99.90;;;;;;5022349;28;20282;-92
2022/01/04 13:25:30;;;;;;;0.50;0.40;;;1.90;99.90;;;;;;5025670;28;20213;-94
2022/01/04 13:28:05;;;;;;;3.80;1.60;;;1.90;99.90;;;;;;5021016;28;20251;-96
2022/01/04 13:30:46;;;;;;;3.37;1.20;;;1.80;99.90;;;;;;5023234;28;20201;-92
2022/01/04 13:33:24;;;;;;;4.00;0.80;;;1.80;99.90;;;;;;5023165;28;20552;-93
2022/01/04 13:35:59;;;;;;;1.50;0.87;;;1.80;99.90;;;;;;5025612;28;20640;-93
2022/01/04 13:38:32;;;;;;;2.00;0.80;;;1.70;99.90;;;;;;5023569;28;20280;-93
2022/01/04 13:41:10;;;;;;;2.20;2.00;;;1.70;99.90;;;;;;5027520;28;20240;-92
2022/01/04 13:43:46;;;;;;;1.00;0.63;;;1.80;99.90;;;;;;5027248;28;20218;-94
2022/01/04 13:46:22;;;;;;;6.50;3.30;;;1.80;99.90;;;;;;5025195;28;20599;-93
2022/01/04 13:48:55;;;;;;;5.77;0.70;;;1.90;99.90;;;;;;5029098;28;20212;-93
2022/01/04 13:51:30;;;;;;;2.63;2.20;;;1.90;99.90;;;;;;5027803;28;20216;-94